CST,Max TemperatureF,Mean TemperatureF,Min TemperatureF,Max Dew PointF,MeanDew PointF,Min DewpointF,Max Humidity, Mean Humidity, Min Humidity, Max Sea Level PressureIn, Mean Sea Level PressureIn, Min Sea Level PressureIn, Max VisibilityMiles, Mean VisibilityMiles, Min VisibilityMiles, Max Wind SpeedMPH, Mean Wind SpeedMPH, Max Gust SpeedMPH,PrecipitationIn, CloudCover, Events, WindDirDegrees
2010-11-1,51,37,23,34,26,19,93,70,41,30.38,30.34,30.29,10,10,10,10,5,,0.00,0,,176
2010-11-2,53,42,30,34,28,23,80,61,35,30.36,30.23,30.01,10,10,10,20,9,28,0.00,1,,171
2010-11-3,51,45,39,39,34,30,81,67,47,30.01,29.96,29.93,10,10,10,25,12,32,0.00,1,,296
2010-11-4,44,38,33,30,20,9,65,52,30,30.17,30.10,30.02,10,10,10,22,18,31,0.00,2,,331
2010-11-5,42,30,19,19,16,12,80,55,36,30.18,30.14,30.07,10,10,9,7,2,,0.00,2,,269
2010-11-6,51,42,32,27,23,18,60,49,38,30.02,29.95,29.88,10,10,10,17,10,25,0.00,0,,176
2010-11-7,57,42,26,36,29,23,86,66,41,29.99,29.95,29.89,10,10,5,9,3,,0.00,0,,147
2010-11-8,55,47,39,36,33,30,81,62,47,29.84,29.74,29.70,10,10,10,12,7,17,0.00,0,,127
2010-11-9,62,50,39,43,37,34,87,67,45,29.81,29.78,29.76,10,10,10,15,8,23,0.00,0,,128
2010-11-10,62,55,48,46,43,39,76,67,55,29.84,29.80,29.77,10,10,9,17,10,24,0.00,2,,137
2010-11-11,46,40,35,41,29,25,87,68,56,30.27,30.09,29.87,10,10,3,21,11,33,0.00,8,,214
2010-11-12,42,37,32,27,24,18,75,61,36,30.43,30.40,30.35,10,10,10,8,4,,0.00,1,,254
2010-11-13,37,32,26,28,23,19,87,70,48,30.34,30.16,29.94,10,8,1,13,3,20,0.00,7,,24
2010-11-14,32,31,30,28,26,23,87,83,75,29.82,29.71,29.65,10,6,2,18,12,22,0.00,8,,301
2010-11-15,28,28,28,23,21,21,80,75,74,29.78,29.70,29.64,10,10,9,5,1,,0.00,8,,327
2010-11-16,33,30,26,25,24,21,93,77,60,29.77,29.73,29.70,10,10,9,7,1,,0.00,8,,19
2010-11-17,30,27,24,25,21,16,86,76,64,30.23,30.07,29.88,10,10,10,18,8,24,0.00,6,,313
2010-11-18,24,22,21,16,12,10,74,64,59,30.32,30.25,30.09,10,10,10,15,9,20,0.00,8,,243
2010-11-19,33,26,19,28,18,5,93,70,43,30.02,29.80,29.68,10,7,2,21,9,30,0.00,5,,181
2010-11-20,17,14,10,9,5,1,73,66,62,30.37,30.31,30.20,10,10,10,17,10,22,0.00,8,,27
2010-11-21,28,24,21,25,21,16,93,83,69,30.14,29.89,29.75,10,6,1,10,5,16,0.01,8,,121
2010-11-22,19,16,14,12,10,7,79,76,68,29.88,29.81,29.72,10,8,0,0,0,,0.00,8,,-1
2010-11-23,21,14,8,10,6,3,79,72,63,30.21,30.07,29.81,10,9,3,16,11,23,0.00,4,,313
2010-11-24,28,22,15,25,14,10,86,74,64,30.15,29.94,29.71,10,8,0,16,10,24,0.03,8,,126
2010-11-25,28,14,1,25,0,-9,86,66,52,29.68,29.62,29.57,10,8,2,15,9,25,0.00,4,,224
2010-11-26,17,14,10,9,7,3,85,74,67,29.82,29.66,29.55,10,9,3,17,12,23,0.00,8,,284
2010-11-27,21,14,6,10,5,0,85,72,63,30.00,29.95,29.89,10,9,2,13,7,21,0.00,4,,268
2010-11-28,41,28,15,27,19,9,86,70,52,29.88,29.75,29.65,10,10,10,14,7,22,0.00,1,,134
2010-11-29,37,35,33,30,28,25,87,75,65,29.69,29.66,29.61,10,8,1,12,8,17,0.03,5,,129
2010-11-30,33,25,17,30,16,10,93,78,68,29.65,29.56,29.52,10,5,1,23,13,31,0.00,8,,307